sensor_id;sensor_type;location;lat;lon;timestamp;temperature;humidity
39315;DHT22;28703;44.412;11.918;2023-05-01T00:00:57;19.30;99.90
39315;DHT22;28703;44.412;11.918;2023-05-01T00:03:24;19.20;99.90
39315;DHT22;28703;44.412;11.918;2023-05-01T00:05:50;19.20;99.90
39315;DHT22;28703;44.412;11.918;2023-05-01T00:08:16;19.10;99.90
39315;DHT22;28703;44.412;11.918;2023-05-01T00:10:42;19.10;99.90
39315;DHT22;28703;44.412;11.918;2023-05-01T00:13:08;19.10;99.90
39315;DHT22;28703;44.412;11.918;2023-05-01T00:15:34;19.00;99.90
39315;DHT22;28703;44.412;11.918;2023-05-01T00:18:00;19.00;99.90
39315;DHT22;28703;44.412;11.918;2023-05-01T00:20:27;18.90;99.90
39315;DHT22;28703;44.412;11.918;2023-05-01T00:22:53;18.90;99.90
39315;DHT22;28703;44.412;11.918;2023-05-01T00:25:19;18.80;99.90
39315;DHT22;28703;44.412;11.918;2023-05-01T00:27:45;18.80;99.90
39315;DHT22;28703;44.412;11.918;2023-05-01T00:30:11;18.70;99.90
39315;DHT22;28703;44.412;11.918;2023-05-01T00:32:37;18.70;99.90
39315;DHT22;28703;44.412;11.918;2023-05-01T00:35:03;18.60;99.90
39315;DHT22;28703;44.412;11.918;2023-05-01T00:37:29;18.60;99.90
39315;DHT22;28703;44.412;11.918;2023-05-01T00:39:55;18.50;99.90
39315;DHT22;28703;44.412;11.918;2023-05-01T00:42:21;18.50;99.90
39315;DHT22;28703;44.412;11.918;2023-05-01T00:44:47;18.50;99.90
39315;DHT22;28703;44.412;11.918;2023-05-01T00:47:13;18.50;99.90
39315;DHT22;28703;44.412;11.918;2023-05-01T00:49:41;18.60;99.90
39315;DHT22;28703;44.412;11.918;2023-05-01T00:52:08;18.50;99.90
39315;DHT22;28703;44.412;11.918;2023-05-01T00:54:37;18.50;99.90
39315;DHT22;28703;44.412;11.918;2023-05-01T00:57:04;18.60;99.90
39315;DHT22;28703;44.412;11.918;2023-05-01T00:59:31;18.60;99.90
39315;DHT22;28703;44.412;11.918;2023-05-01T01:01:57;18.60;99.90
39315;DHT22;28703;44.412;11.918;2023-05-01T01:04:23;18.60;99.90
39315;DHT22;28703;44.412;11.918;2023-05-01T01:07:21;18.60;99.90
39315;DHT22;28703;44.412;11.918;2023-05-01T01:10:15;18.50;99.90
39315;DHT22;28703;44.412;11.918;2023-05-01T01:15:40;18.50;99.90
39315;DHT22;28703;44.412;11.918;2023-05-01T01:23:40;18.40;99.90
39315;DHT22;28703;44.412;11.918;2023-05-01T01:26:31;18.40;99.90
39315;DHT22;28703;44.412;11.918;2023-05-01T01:29:21;18.40;99.90
39315;DHT22;28703;44.412;11.918;2023-05-01T01:35:02;18.30;99.90
39315;DHT22;28703;44.412;11.918;2023-05-01T01:37:41;18.40;99.90
39315;DHT22;28703;44.412;11.918;2023-05-01T01:40:12;18.40;99.90
39315;DHT22;28703;44.412;11.918;2023-05-01T01:42:45;18.40;99.90
39315;DHT22;28703;44.412;11.918;2023-05-01T01:45:25;18.40;99.90
39315;DHT22;28703;44.412;11.918;2023-05-01T01:47:55;18.40;99.90
39315;DHT22;28703;44.412;11.918;2023-05-01T01:50:25;18.40;99.90
39315;DHT22;28703;44.412;11.918;2023-05-01T01:52:53;18.40;99.90
39315;DHT22;28703;44.412;11.918;2023-05-01T01:55:27;18.40;99.90
39315;DHT22;28703;44.412;11.918;2023-05-01T01:57:55;18.40;99.90
39315;DHT22;28703;44.412;11.918;2023-05-01T02:00:22;18.40;99.90
39315;DHT22;28703;44.412;11.918;2023-05-01T02:02:50;18.40;99.90
39315;DHT22;28703;44.412;11.918;2023-05-01T02:05:18;18.40;99.90
39315;DHT22;28703;44.412;11.918;2023-05-01T02:07:47;18.40;99.90
39315;DHT22;28703;44.412;11.918;2023-05-01T02:10:14;18.40;99.90
39315;DHT22;28703;44.412;11.918;2023-05-01T02:12:41;18.40;99.90
39315;DHT22;28703;44.412;11.918;2023-05-01T02:15:09;18.50;99.90
39315;DHT22;28703;44.412;11.918;2023-05-01T02:17:37;18.40;99.90
39315;DHT22;28703;44.412;11.918;2023-05-01T02:20:05;18.40;99.90
39315;DHT22;28703;44.412;11.918;2023-05-01T02:22:32;18.50;99.90
39315;DHT22;28703;44.412;11.918;2023-05-01T02:24:59;18.50;99.90
39315;DHT22;28703;44.412;11.918;2023-05-01T02:27:31;18.50;99.90
39315;DHT22;28703;44.412;11.918;2023-05-01T02:29:57;18.50;99.90
39315;DHT22;28703;44.412;11.918;2023-05-01T02:32:23;18.50;99.90
39315;DHT22;28703;44.412;11.918;2023-05-01T02:34:50;18.50;99.90
39315;DHT22;28703;44.412;11.918;2023-05-01T02:37:16;18.50;99.90
39315;DHT22;28703;44.412;11.918;2023-05-01T02:39:43;18.50;99.90
39315;DHT22;28703;44.412;11.918;2023-05-01T02:42:12;18.50;99.90
39315;DHT22;28703;44.412;11.918;2023-05-01T02:45:06;18.50;99.90
39315;DHT22;28703;44.412;11.918;2023-05-01T02:47:37;18.50;99.90
39315;DHT22;28703;44.412;11.918;2023-05-01T02:50:05;18.50;99.90
39315;DHT22;28703;44.412;11.918;2023-05-01T02:52:34;18.50;99.90
39315;DHT22;28703;44.412;11.918;2023-05-01T02:55:21;18.40;99.90
39315;DHT22;28703;44.412;11.918;2023-05-01T02:57:49;18.40;99.90
39315;DHT22;28703;44.412;11.918;2023-05-01T03:00:15;18.40;99.90
39315;DHT22;28703;44.412;11.918;2023-05-01T03:02:41;18.40;99.90
39315;DHT22;28703;44.412;11.918;2023-05-01T03:05:07;18.40;99.90
39315;DHT22;28703;44.412;11.918;2023-05-01T03:07:33;18.30;99.90
39315;DHT22;28703;44.412;11.918;2023-05-01T03:10:03;18.20;99.90
39315;DHT22;28703;44.412;11.918;2023-05-01T03:12:30;18.20;99.90
39315;DHT22;28703;44.412;11.918;2023-05-01T03:14:56;18.20;99.90
39315;DHT22;28703;44.412;11.918;2023-05-01T03:17:22;18.20;99.90
39315;DHT22;28703;44.412;11.918;2023-05-01T03:19:47;18.10;99.90
39315;DHT22;28703;44.412;11.918;2023-05-01T03:22:14;18.10;99.90
39315;DHT22;28703;44.412;11.918;2023-05-01T03:24:40;18.20;99.90
39315;DHT22;28703;44.412;11.918;2023-05-01T03:27:06;18.20;99.90
39315;DHT22;28703;44.412;11.918;2023-05-01T03:29:33;18.20;99.90
39315;DHT22;28703;44.412;11.918;2023-05-01T03:31:59;18.20;99.90
39315;DHT22;28703;44.412;11.918;2023-05-01T03:34:25;18.20;99.90
39315;DHT22;28703;44.412;11.918;2023-05-01T03:36:54;18.20;99.90
39315;DHT22;28703;44.412;11.918;2023-05-01T03:39:23;18.20;99.90
39315;DHT22;28703;44.412;11.918;2023-05-01T03:42:21;18.20;99.90
39315;DHT22;28703;44.412;11.918;2023-05-01T03:44:55;18.20;99.90
39315;DHT22;28703;44.412;11.918;2023-05-01T03:47:22;18.30;99.90
39315;DHT22;28703;44.412;11.918;2023-05-01T03:49:48;18.20;99.90
39315;DHT22;28703;44.412;11.918;2023-05-01T03:52:13;18.30;99.90
39315;DHT22;28703;44.412;11.918;2023-05-01T03:54:41;18.20;99.90
39315;DHT22;28703;44.412;11.918;2023-05-01T03:57:30;18.20;99.90
39315;DHT22;28703;44.412;11.918;2023-05-01T03:59:56;18.20;99.90
39315;DHT22;28703;44.412;11.918;2023-05-01T04:02:22;18.20;99.90
39315;DHT22;28703;44.412;11.918;2023-05-01T04:04:48;18.20;99.80
39315;DHT22;28703;44.412;11.918;2023-05-01T04:07:14;18.20;99.80
39315;DHT22;28703;44.412;11.918;2023-05-01T04:09:45;18.20;99.80
39315;DHT22;28703;44.412;11.918;2023-05-01T04:12:12;18.20;99.70
39315;DHT22;28703;44.412;11.918;2023-05-01T04:14:38;18.30;99.80
39315;DHT22;28703;44.412;11.918;2023-05-01T04:17:05;18.20;99.70
39315;DHT22;28703;44.412;11.918;2023-05-01T04:19:34;18.20;99.70
39315;DHT22;28703;44.412;11.918;2023-05-01T04:22:01;18.20;99.60
39315;DHT22;28703;44.412;11.918;2023-05-01T04:24:28;18.30;99.70
39315;DHT22;28703;44.412;11.918;2023-05-01T04:26:54;18.20;99.60
39315;DHT22;28703;44.412;11.918;2023-05-01T04:29:20;18.30;99.60
39315;DHT22;28703;44.412;11.918;2023-05-01T04:31:46;18.30;99.60
39315;DHT22;28703;44.412;11.918;2023-05-01T04:34:12;18.30;99.70
39315;DHT22;28703;44.412;11.918;2023-05-01T04:36:38;18.30;99.70
39315;DHT22;28703;44.412;11.918;2023-05-01T04:39:04;18.30;99.70
39315;DHT22;28703;44.412;11.918;2023-05-01T04:41:31;18.30;99.70
39315;DHT22;28703;44.412;11.918;2023-05-01T04:43:57;18.30;99.70
39315;DHT22;28703;44.412;11.918;2023-05-01T04:46:23;18.20;99.60
39315;DHT22;28703;44.412;11.918;2023-05-01T04:48:49;18.20;99.60
39315;DHT22;28703;44.412;11.918;2023-05-01T04:51:15;18.30;99.70
39315;DHT22;28703;44.412;11.918;2023-05-01T04:53:41;18.30;99.70
39315;DHT22;28703;44.412;11.918;2023-05-01T04:56:17;18.30;99.70
39315;DHT22;28703;44.412;11.918;2023-05-01T04:58:44;18.30;99.70
39315;DHT22;28703;44.412;11.918;2023-05-01T05:01:14;18.30;99.60
39315;DHT22;28703;44.412;11.918;2023-05-01T05:03:40;18.30;99.60
39315;DHT22;28703;44.412;11.918;2023-05-01T05:06:09;18.30;99.50
39315;DHT22;28703;44.412;11.918;2023-05-01T05:08:36;18.30;99.60
39315;DHT22;28703;44.412;11.918;2023-05-01T05:11:11;18.30;99.60
39315;DHT22;28703;44.412;11.918;2023-05-01T05:13:45;18.40;99.60
39315;DHT22;28703;44.412;11.918;2023-05-01T05:16:12;18.40;99.60
39315;DHT22;28703;44.412;11.918;2023-05-01T05:18:38;18.40;99.50
39315;DHT22;28703;44.412;11.918;2023-05-01T05:21:05;18.40;99.50
39315;DHT22;28703;44.412;11.918;2023-05-01T05:23:32;18.40;99.50
39315;DHT22;28703;44.412;11.918;2023-05-01T05:26:01;18.40;99.40
39315;DHT22;28703;44.412;11.918;2023-05-01T05:28:28;18.40;99.30
39315;DHT22;28703;44.412;11.918;2023-05-01T05:30:55;18.50;99.30
39315;DHT22;28703;44.412;11.918;2023-05-01T05:33:23;18.40;99.20
39315;DHT22;28703;44.412;11.918;2023-05-01T05:35:51;18.50;99.20
39315;DHT22;28703;44.412;11.918;2023-05-01T05:38:19;18.50;99.20
39315;DHT22;28703;44.412;11.918;2023-05-01T05:40:49;18.50;99.10
39315;DHT22;28703;44.412;11.918;2023-05-01T05:43:15;18.50;99.10
39315;DHT22;28703;44.412;11.918;2023-05-01T05:45:41;18.50;99.00
39315;DHT22;28703;44.412;11.918;2023-05-01T05:48:07;18.60;99.00
39315;DHT22;28703;44.412;11.918;2023-05-01T05:50:38;18.50;99.00
39315;DHT22;28703;44.412;11.918;2023-05-01T05:53:07;18.60;99.00
39315;DHT22;28703;44.412;11.918;2023-05-01T05:55:35;18.60;99.00
39315;DHT22;28703;44.412;11.918;2023-05-01T05:58:03;18.60;98.90
39315;DHT22;28703;44.412;11.918;2023-05-01T06:00:29;18.70;98.90
39315;DHT22;28703;44.412;11.918;2023-05-01T06:02:58;18.70;98.90
39315;DHT22;28703;44.412;11.918;2023-05-01T06:05:28;18.70;98.80
39315;DHT22;28703;44.412;11.918;2023-05-01T06:07:54;18.70;98.90
39315;DHT22;28703;44.412;11.918;2023-05-01T06:10:20;18.70;98.90
39315;DHT22;28703;44.412;11.918;2023-05-01T06:12:47;18.80;99.00
39315;DHT22;28703;44.412;11.918;2023-05-01T06:15:13;18.80;99.00
39315;DHT22;28703;44.412;11.918;2023-05-01T06:17:46;18.80;99.10
39315;DHT22;28703;44.412;11.918;2023-05-01T06:20:12;18.80;99.20
39315;DHT22;28703;44.412;11.918;2023-05-01T06:22:41;18.80;99.30
39315;DHT22;28703;44.412;11.918;2023-05-01T06:25:15;18.90;99.30
39315;DHT22;28703;44.412;11.918;2023-05-01T06:27:41;18.90;99.50
39315;DHT22;28703;44.412;11.918;2023-05-01T06:30:08;19.00;99.30
39315;DHT22;28703;44.412;11.918;2023-05-01T06:32:36;19.00;99.20
39315;DHT22;28703;44.412;11.918;2023-05-01T06:35:03;19.00;99.20
39315;DHT22;28703;44.412;11.918;2023-05-01T06:37:29;19.00;99.20
39315;DHT22;28703;44.412;11.918;2023-05-01T06:39:55;19.10;99.20
39315;DHT22;28703;44.412;11.918;2023-05-01T06:42:21;19.10;99.30
39315;DHT22;28703;44.412;11.918;2023-05-01T06:44:47;19.20;99.30
39315;DHT22;28703;44.412;11.918;2023-05-01T06:47:13;19.20;99.30
39315;DHT22;28703;44.412;11.918;2023-05-01T06:49:39;19.20;99.30
39315;DHT22;28703;44.412;11.918;2023-05-01T06:52:10;19.20;99.20
39315;DHT22;28703;44.412;11.918;2023-05-01T06:54:36;19.20;99.20
39315;DHT22;28703;44.412;11.918;2023-05-01T06:57:02;19.30;99.20
39315;DHT22;28703;44.412;11.918;2023-05-01T06:59:28;19.30;99.20
39315;DHT22;28703;44.412;11.918;2023-05-01T07:01:57;19.40;99.20
39315;DHT22;28703;44.412;11.918;2023-05-01T07:04:23;19.40;99.10
39315;DHT22;28703;44.412;11.918;2023-05-01T07:06:49;19.50;98.90
39315;DHT22;28703;44.412;11.918;2023-05-01T07:09:15;19.50;98.80
39315;DHT22;28703;44.412;11.918;2023-05-01T07:11:41;19.50;98.70
39315;DHT22;28703;44.412;11.918;2023-05-01T07:14:07;19.60;98.50
39315;DHT22;28703;44.412;11.918;2023-05-01T07:16:33;19.70;98.30
39315;DHT22;28703;44.412;11.918;2023-05-01T07:18:59;19.70;98.10
39315;DHT22;28703;44.412;11.918;2023-05-01T07:21:25;19.70;97.80
39315;DHT22;28703;44.412;11.918;2023-05-01T07:23:51;19.70;97.70
39315;DHT22;28703;44.412;11.918;2023-05-01T07:26:17;19.60;97.50
39315;DHT22;28703;44.412;11.918;2023-05-01T07:28:42;19.70;97.50
39315;DHT22;28703;44.412;11.918;2023-05-01T07:31:09;19.70;97.50
39315;DHT22;28703;44.412;11.918;2023-05-01T07:33:35;19.60;97.20
39315;DHT22;28703;44.412;11.918;2023-05-01T07:36:01;19.60;97.20
39315;DHT22;28703;44.412;11.918;2023-05-01T07:38:28;19.60;97.20
39315;DHT22;28703;44.412;11.918;2023-05-01T07:40:53;19.70;97.20
39315;DHT22;28703;44.412;11.918;2023-05-01T07:43:22;19.60;97.20
39315;DHT22;28703;44.412;11.918;2023-05-01T07:45:55;19.70;97.20
39315;DHT22;28703;44.412;11.918;2023-05-01T07:48:22;19.70;97.20
39315;DHT22;28703;44.412;11.918;2023-05-01T07:50:48;19.70;97.20
39315;DHT22;28703;44.412;11.918;2023-05-01T07:53:13;19.70;97.10
39315;DHT22;28703;44.412;11.918;2023-05-01T07:55:39;19.70;97.10
39315;DHT22;28703;44.412;11.918;2023-05-01T07:58:06;19.70;97.00
39315;DHT22;28703;44.412;11.918;2023-05-01T08:00:32;19.70;97.00
39315;DHT22;28703;44.412;11.918;2023-05-01T08:02:59;19.70;96.90
39315;DHT22;28703;44.412;11.918;2023-05-01T08:05:25;19.70;96.70
39315;DHT22;28703;44.412;11.918;2023-05-01T08:07:51;19.70;96.70
39315;DHT22;28703;44.412;11.918;2023-05-01T08:10:17;19.70;96.70
39315;DHT22;28703;44.412;11.918;2023-05-01T08:12:43;19.70;96.60
39315;DHT22;28703;44.412;11.918;2023-05-01T08:15:09;19.70;96.60
39315;DHT22;28703;44.412;11.918;2023-05-01T08:17:35;19.70;96.60
39315;DHT22;28703;44.412;11.918;2023-05-01T08:20:01;19.70;96.70
39315;DHT22;28703;44.412;11.918;2023-05-01T08:22:28;19.70;96.60
39315;DHT22;28703;44.412;11.918;2023-05-01T08:24:54;19.80;96.60
39315;DHT22;28703;44.412;11.918;2023-05-01T08:27:20;19.80;96.50
39315;DHT22;28703;44.412;11.918;2023-05-01T08:29:46;19.90;96.50
39315;DHT22;28703;44.412;11.918;2023-05-01T08:32:13;20.00;96.30
39315;DHT22;28703;44.412;11.918;2023-05-01T08:34:39;20.00;96.20
39315;DHT22;28703;44.412;11.918;2023-05-01T08:37:05;20.10;96.10
39315;DHT22;28703;44.412;11.918;2023-05-01T08:39:31;20.20;96.20
39315;DHT22;28703;44.412;11.918;2023-05-01T08:41:57;20.30;96.10
39315;DHT22;28703;44.412;11.918;2023-05-01T08:44:25;20.50;95.90
39315;DHT22;28703;44.412;11.918;2023-05-01T08:47:15;20.60;95.80
39315;DHT22;28703;44.412;11.918;2023-05-01T08:49:43;20.70;95.50
39315;DHT22;28703;44.412;11.918;2023-05-01T08:52:14;20.60;95.20
39315;DHT22;28703;44.412;11.918;2023-05-01T08:54:44;20.80;95.20
39315;DHT22;28703;44.412;11.918;2023-05-01T08:57:14;20.80;95.30
39315;DHT22;28703;44.412;11.918;2023-05-01T08:59:40;20.90;95.30
39315;DHT22;28703;44.412;11.918;2023-05-01T09:02:08;21.00;95.30
39315;DHT22;28703;44.412;11.918;2023-05-01T09:04:36;21.10;95.10
39315;DHT22;28703;44.412;11.918;2023-05-01T09:07:03;21.10;94.70
39315;DHT22;28703;44.412;11.918;2023-05-01T09:09:30;21.10;94.90
39315;DHT22;28703;44.412;11.918;2023-05-01T09:12:17;21.10;94.80
39315;DHT22;28703;44.412;11.918;2023-05-01T09:14:46;21.10;94.80
39315;DHT22;28703;44.412;11.918;2023-05-01T09:17:12;21.10;94.80
39315;DHT22;28703;44.412;11.918;2023-05-01T09:19:38;21.10;94.80
39315;DHT22;28703;44.412;11.918;2023-05-01T09:22:06;21.20;94.80
39315;DHT22;28703;44.412;11.918;2023-05-01T09:24:32;21.10;94.80
39315;DHT22;28703;44.412;11.918;2023-05-01T09:26:58;21.10;94.80
39315;DHT22;28703;44.412;11.918;2023-05-01T09:29:45;21.20;94.70
39315;DHT22;28703;44.412;11.918;2023-05-01T09:32:25;21.20;94.60
39315;DHT22;28703;44.412;11.918;2023-05-01T09:35:10;21.20;94.60
39315;DHT22;28703;44.412;11.918;2023-05-01T09:37:38;21.20;94.60
39315;DHT22;28703;44.412;11.918;2023-05-01T09:40:11;21.30;94.60
39315;DHT22;28703;44.412;11.918;2023-05-01T09:42:49;21.40;94.60
39315;DHT22;28703;44.412;11.918;2023-05-01T09:45:16;21.40;94.50
39315;DHT22;28703;44.412;11.918;2023-05-01T09:47:46;21.40;94.40
39315;DHT22;28703;44.412;11.918;2023-05-01T09:50:32;21.50;94.30
39315;DHT22;28703;44.412;11.918;2023-05-01T09:53:03;21.40;94.00
39315;DHT22;28703;44.412;11.918;2023-05-01T09:55:31;21.40;94.10
39315;DHT22;28703;44.412;11.918;2023-05-01T09:57:57;21.40;94.10
39315;DHT22;28703;44.412;11.918;2023-05-01T10:00:24;21.50;94.20
39315;DHT22;28703;44.412;11.918;2023-05-01T10:02:50;21.50;94.10
39315;DHT22;28703;44.412;11.918;2023-05-01T10:05:17;21.50;94.20
39315;DHT22;28703;44.412;11.918;2023-05-01T10:08:00;21.60;94.20
39315;DHT22;28703;44.412;11.918;2023-05-01T10:10:26;21.50;94.10
39315;DHT22;28703;44.412;11.918;2023-05-01T10:12:53;21.60;94.00
39315;DHT22;28703;44.412;11.918;2023-05-01T10:15:19;21.70;94.10
39315;DHT22;28703;44.412;11.918;2023-05-01T10:17:48;21.70;93.80
39315;DHT22;28703;44.412;11.918;2023-05-01T10:20:15;21.80;93.90
39315;DHT22;28703;44.412;11.918;2023-05-01T10:22:41;21.80;93.90
39315;DHT22;28703;44.412;11.918;2023-05-01T10:25:09;21.80;93.70
39315;DHT22;28703;44.412;11.918;2023-05-01T10:27:38;21.80;93.50
39315;DHT22;28703;44.412;11.918;2023-05-01T10:30:05;21.80;93.50
39315;DHT22;28703;44.412;11.918;2023-05-01T10:32:32;21.80;93.30
39315;DHT22;28703;44.412;11.918;2023-05-01T10:35:03;21.90;93.60
39315;DHT22;28703;44.412;11.918;2023-05-01T10:37:38;21.90;93.40
39315;DHT22;28703;44.412;11.918;2023-05-01T10:43:22;21.90;93.00
39315;DHT22;28703;44.412;11.918;2023-05-01T10:46:38;22.00;93.20
39315;DHT22;28703;44.412;11.918;2023-05-01T10:51:22;22.00;93.10
39315;DHT22;28703;44.412;11.918;2023-05-01T10:59:03;22.20;92.90
39315;DHT22;28703;44.412;11.918;2023-05-01T11:01:31;22.30;92.80
39315;DHT22;28703;44.412;11.918;2023-05-01T11:12:06;22.60;92.30
39315;DHT22;28703;44.412;11.918;2023-05-01T11:22:55;23.00;92.00
39315;DHT22;28703;44.412;11.918;2023-05-01T11:25:24;23.00;92.00
39315;DHT22;28703;44.412;11.918;2023-05-01T11:27:53;22.90;91.80
39315;DHT22;28703;44.412;11.918;2023-05-01T11:30:20;22.80;91.70
39315;DHT22;28703;44.412;11.918;2023-05-01T11:32:47;22.70;91.80
39315;DHT22;28703;44.412;11.918;2023-05-01T11:35:21;22.70;91.70
39315;DHT22;28703;44.412;11.918;2023-05-01T11:37:48;22.60;91.60
39315;DHT22;28703;44.412;11.918;2023-05-01T11:40:23;22.60;91.90
39315;DHT22;28703;44.412;11.918;2023-05-01T11:42:58;22.60;92.00
39315;DHT22;28703;44.412;11.918;2023-05-01T11:45:25;22.60;91.70
39315;DHT22;28703;44.412;11.918;2023-05-01T11:47:52;22.50;92.00
39315;DHT22;28703;44.412;11.918;2023-05-01T11:50:18;22.60;92.10
39315;DHT22;28703;44.412;11.918;2023-05-01T11:52:51;22.50;92.30
39315;DHT22;28703;44.412;11.918;2023-05-01T11:55:20;22.50;92.10
39315;DHT22;28703;44.412;11.918;2023-05-01T11:57:55;22.50;92.20
39315;DHT22;28703;44.412;11.918;2023-05-01T12:00:30;22.40;92.20
39315;DHT22;28703;44.412;11.918;2023-05-01T12:03:09;22.30;92.10
39315;DHT22;28703;44.412;11.918;2023-05-01T12:05:39;22.30;91.90
39315;DHT22;28703;44.412;11.918;2023-05-01T12:08:15;22.40;92.00
39315;DHT22;28703;44.412;11.918;2023-05-01T12:10:54;22.50;92.10
39315;DHT22;28703;44.412;11.918;2023-05-01T12:13:23;22.50;92.10
39315;DHT22;28703;44.412;11.918;2023-05-01T12:15:53;22.70;92.20
39315;DHT22;28703;44.412;11.918;2023-05-01T12:18:19;22.70;92.10
39315;DHT22;28703;44.412;11.918;2023-05-01T12:20:53;22.70;92.00
39315;DHT22;28703;44.412;11.918;2023-05-01T12:23:41;22.70;92.10
39315;DHT22;28703;44.412;11.918;2023-05-01T12:26:21;22.60;92.00
39315;DHT22;28703;44.412;11.918;2023-05-01T12:28:59;22.60;91.90
39315;DHT22;28703;44.412;11.918;2023-05-01T12:31:28;22.50;91.90
39315;DHT22;28703;44.412;11.918;2023-05-01T12:33:57;22.40;91.90
39315;DHT22;28703;44.412;11.918;2023-05-01T12:36:26;22.20;92.10
39315;DHT22;28703;44.412;11.918;2023-05-01T12:39:10;22.20;92.20
39315;DHT22;28703;44.412;11.918;2023-05-01T12:41:43;22.10;92.10
39315;DHT22;28703;44.412;11.918;2023-05-01T12:44:24;22.10;92.30
39315;DHT22;28703;44.412;11.918;2023-05-01T12:46:55;22.10;92.60
39315;DHT22;28703;44.412;11.918;2023-05-01T12:49:23;22.00;92.60
39315;DHT22;28703;44.412;11.918;2023-05-01T12:51:51;22.00;92.90
39315;DHT22;28703;44.412;11.918;2023-05-01T12:54:28;22.00;93.30
39315;DHT22;28703;44.412;11.918;2023-05-01T12:57:14;22.10;93.40
39315;DHT22;28703;44.412;11.918;2023-05-01T12:59:43;22.10;93.50
39315;DHT22;28703;44.412;11.918;2023-05-01T13:02:13;22.10;93.20
39315;DHT22;28703;44.412;11.918;2023-05-01T13:04:45;22.10;93.00
39315;DHT22;28703;44.412;11.918;2023-05-01T13:07:15;22.00;93.00
39315;DHT22;28703;44.412;11.918;2023-05-01T13:09:54;21.90;93.00
39315;DHT22;28703;44.412;11.918;2023-05-01T13:12:21;21.90;92.90
39315;DHT22;28703;44.412;11.918;2023-05-01T13:14:48;21.90;92.80
39315;DHT22;28703;44.412;11.918;2023-05-01T13:17:28;22.00;92.90
39315;DHT22;28703;44.412;11.918;2023-05-01T13:19:55;22.00;92.80
39315;DHT22;28703;44.412;11.918;2023-05-01T13:22:47;22.00;92.90
39315;DHT22;28703;44.412;11.918;2023-05-01T13:25:15;22.00;93.00
39315;DHT22;28703;44.412;11.918;2023-05-01T13:27:47;22.00;93.00
39315;DHT22;28703;44.412;11.918;2023-05-01T13:30:15;21.90;92.80
39315;DHT22;28703;44.412;11.918;2023-05-01T13:32:43;21.90;92.70
39315;DHT22;28703;44.412;11.918;2023-05-01T13:35:10;21.80;92.70
39315;DHT22;28703;44.412;11.918;2023-05-01T13:37:38;21.70;92.70
39315;DHT22;28703;44.412;11.918;2023-05-01T13:40:05;21.70;92.70
39315;DHT22;28703;44.412;11.918;2023-05-01T13:42:32;21.70;92.60
39315;DHT22;28703;44.412;11.918;2023-05-01T13:44:58;21.60;92.50
39315;DHT22;28703;44.412;11.918;2023-05-01T13:47:32;21.50;92.50
39315;DHT22;28703;44.412;11.918;2023-05-01T13:50:03;21.60;92.50
39315;DHT22;28703;44.412;11.918;2023-05-01T13:52:32;21.50;92.80
39315;DHT22;28703;44.412;11.918;2023-05-01T13:55:05;21.50;93.10
39315;DHT22;28703;44.412;11.918;2023-05-01T13:57:32;21.40;93.60
39315;DHT22;28703;44.412;11.918;2023-05-01T14:00:00;21.40;94.20
39315;DHT22;28703;44.412;11.918;2023-05-01T14:02:27;21.30;94.50
39315;DHT22;28703;44.412;11.918;2023-05-01T14:04:54;21.20;94.80
39315;DHT22;28703;44.412;11.918;2023-05-01T14:07:24;21.20;95.20
39315;DHT22;28703;44.412;11.918;2023-05-01T14:09:53;21.10;95.30
39315;DHT22;28703;44.412;11.918;2023-05-01T14:12:25;21.10;95.60
39315;DHT22;28703;44.412;11.918;2023-05-01T14:14:54;21.00;96.00
39315;DHT22;28703;44.412;11.918;2023-05-01T14:17:32;20.90;96.10
39315;DHT22;28703;44.412;11.918;2023-05-01T14:19:59;20.90;96.30
39315;DHT22;28703;44.412;11.918;2023-05-01T14:22:55;20.80;96.50
39315;DHT22;28703;44.412;11.918;2023-05-01T14:25:28;20.70;96.90
39315;DHT22;28703;44.412;11.918;2023-05-01T14:27:56;20.70;97.30
39315;DHT22;28703;44.412;11.918;2023-05-01T14:30:33;20.70;97.20
39315;DHT22;28703;44.412;11.918;2023-05-01T14:33:06;20.70;97.40
39315;DHT22;28703;44.412;11.918;2023-05-01T14:35:33;20.70;97.70
39315;DHT22;28703;44.412;11.918;2023-05-01T14:38:14;20.60;98.00
39315;DHT22;28703;44.412;11.918;2023-05-01T14:40:42;20.50;98.10
39315;DHT22;28703;44.412;11.918;2023-05-01T14:43:09;20.30;98.50
39315;DHT22;28703;44.412;11.918;2023-05-01T14:45:40;20.20;98.70
39315;DHT22;28703;44.412;11.918;2023-05-01T14:48:21;20.20;98.70
39315;DHT22;28703;44.412;11.918;2023-05-01T14:50:49;20.10;99.00
39315;DHT22;28703;44.412;11.918;2023-05-01T14:53:16;20.10;99.10
39315;DHT22;28703;44.412;11.918;2023-05-01T14:55:42;20.10;99.30
39315;DHT22;28703;44.412;11.918;2023-05-01T14:58:08;20.10;99.40
39315;DHT22;28703;44.412;11.918;2023-05-01T15:00:36;20.00;99.20
39315;DHT22;28703;44.412;11.918;2023-05-01T15:03:02;20.00;99.60
39315;DHT22;28703;44.412;11.918;2023-05-01T15:05:32;20.00;99.50
39315;DHT22;28703;44.412;11.918;2023-05-01T15:07:59;19.90;99.60
39315;DHT22;28703;44.412;11.918;2023-05-01T15:10:28;19.90;99.80
39315;DHT22;28703;44.412;11.918;2023-05-01T15:12:56;19.90;99.90
39315;DHT22;28703;44.412;11.918;2023-05-01T15:15:22;19.90;99.90
39315;DHT22;28703;44.412;11.918;2023-05-01T15:17:48;19.90;99.90
39315;DHT22;28703;44.412;11.918;2023-05-01T15:20:16;19.90;99.90
39315;DHT22;28703;44.412;11.918;2023-05-01T15:22:42;19.80;99.90
39315;DHT22;28703;44.412;11.918;2023-05-01T15:25:08;19.80;99.90
39315;DHT22;28703;44.412;11.918;2023-05-01T15:27:37;19.70;99.90
39315;DHT22;28703;44.412;11.918;2023-05-01T15:30:03;19.70;99.90
39315;DHT22;28703;44.412;11.918;2023-05-01T15:32:29;19.70;99.90
39315;DHT22;28703;44.412;11.918;2023-05-01T15:34:56;19.70;99.90
39315;DHT22;28703;44.412;11.918;2023-05-01T15:37:22;19.60;99.90
39315;DHT22;28703;44.412;11.918;2023-05-01T15:39:51;19.60;99.90
39315;DHT22;28703;44.412;11.918;2023-05-01T15:42:18;19.50;99.90
39315;DHT22;28703;44.412;11.918;2023-05-01T15:44:44;19.50;99.90
39315;DHT22;28703;44.412;11.918;2023-05-01T15:47:10;19.50;99.90
39315;DHT22;28703;44.412;11.918;2023-05-01T15:49:36;19.40;99.90
39315;DHT22;28703;44.412;11.918;2023-05-01T15:52:02;19.30;99.90
39315;DHT22;28703;44.412;11.918;2023-05-01T15:54:30;19.20;99.90
39315;DHT22;28703;44.412;11.918;2023-05-01T15:56:57;19.30;99.90
39315;DHT22;28703;44.412;11.918;2023-05-01T15:59:23;19.20;99.90
39315;DHT22;28703;44.412;11.918;2023-05-01T16:01:54;19.20;99.90
39315;DHT22;28703;44.412;11.918;2023-05-01T16:04:23;19.10;99.90
39315;DHT22;28703;44.412;11.918;2023-05-01T16:06:49;19.10;99.90